sensor_id;sensor_type;location;lat;lon;timestamp;temperature;humidity
21502;DHT22;27639;48.674;9.242;2023-04-25T00:00:41;13.20;52.70
21502;DHT22;27639;48.674;9.242;2023-04-25T00:03:07;13.20;52.80
21502;DHT22;27639;48.674;9.242;2023-04-25T00:05:34;13.20;52.80
21502;DHT22;27639;48.674;9.242;2023-04-25T00:08:03;13.20;52.80
21502;DHT22;27639;48.674;9.242;2023-04-25T00:10:28;13.20;52.80
21502;DHT22;27639;48.674;9.242;2023-04-25T00:12:54;13.20;52.80
21502;DHT22;27639;48.674;9.242;2023-04-25T00:15:19;13.20;52.80
21502;DHT22;27639;48.674;9.242;2023-04-25T00:17:45;13.10;52.70
21502;DHT22;27639;48.674;9.242;2023-04-25T00:20:11;13.10;52.80
21502;DHT22;27639;48.674;9.242;2023-04-25T00:22:37;13.10;52.80
21502;DHT22;27639;48.674;9.242;2023-04-25T00:25:04;13.10;52.80
21502;DHT22;27639;48.674;9.242;2023-04-25T00:27:31;13.10;52.70
21502;DHT22;27639;48.674;9.242;2023-04-25T00:29:57;13.10;52.80
21502;DHT22;27639;48.674;9.242;2023-04-25T00:32:22;13.10;52.70
21502;DHT22;27639;48.674;9.242;2023-04-25T00:34:48;13.10;52.80
21502;DHT22;27639;48.674;9.242;2023-04-25T00:37:13;13.10;52.80
21502;DHT22;27639;48.674;9.242;2023-04-25T00:39:39;13.10;52.80
21502;DHT22;27639;48.674;9.242;2023-04-25T00:42:05;13.10;52.70
21502;DHT22;27639;48.674;9.242;2023-04-25T00:44:31;13.10;52.80
21502;DHT22;27639;48.674;9.242;2023-04-25T00:46:57;13.10;52.70
21502;DHT22;27639;48.674;9.242;2023-04-25T00:49:23;13.10;52.80
21502;DHT22;27639;48.674;9.242;2023-04-25T00:51:48;13.10;52.70
21502;DHT22;27639;48.674;9.242;2023-04-25T00:54:14;13.10;52.70
21502;DHT22;27639;48.674;9.242;2023-04-25T00:56:41;13.10;52.80
21502;DHT22;27639;48.674;9.242;2023-04-25T00:59:07;13.00;52.90
21502;DHT22;27639;48.674;9.242;2023-04-25T01:01:34;13.00;53.10
21502;DHT22;27639;48.674;9.242;2023-04-25T01:04:01;13.00;53.20
21502;DHT22;27639;48.674;9.242;2023-04-25T01:06:26;12.90;53.30
21502;DHT22;27639;48.674;9.242;2023-04-25T01:08:53;12.90;53.40
21502;DHT22;27639;48.674;9.242;2023-04-25T01:11:18;12.90;53.50
21502;DHT22;27639;48.674;9.242;2023-04-25T01:13:44;12.80;53.60
21502;DHT22;27639;48.674;9.242;2023-04-25T01:16:10;12.80;53.60
21502;DHT22;27639;48.674;9.242;2023-04-25T01:18:38;12.80;53.70
21502;DHT22;27639;48.674;9.242;2023-04-25T01:21:11;12.80;53.70
21502;DHT22;27639;48.674;9.242;2023-04-25T01:23:40;12.80;53.80
21502;DHT22;27639;48.674;9.242;2023-04-25T01:26:09;12.80;54.00
21502;DHT22;27639;48.674;9.242;2023-04-25T01:28:35;12.80;54.20
21502;DHT22;27639;48.674;9.242;2023-04-25T01:31:01;12.80;54.30
21502;DHT22;27639;48.674;9.242;2023-04-25T01:33:27;12.80;54.40
21502;DHT22;27639;48.674;9.242;2023-04-25T01:35:53;12.70;54.50
21502;DHT22;27639;48.674;9.242;2023-04-25T01:38:18;12.70;54.60
21502;DHT22;27639;48.674;9.242;2023-04-25T01:40:45;12.60;54.70
21502;DHT22;27639;48.674;9.242;2023-04-25T01:43:12;12.60;54.80
21502;DHT22;27639;48.674;9.242;2023-04-25T01:45:40;12.60;54.90
21502;DHT22;27639;48.674;9.242;2023-04-25T01:48:10;12.60;54.90
21502;DHT22;27639;48.674;9.242;2023-04-25T01:50:38;12.50;55.00
21502;DHT22;27639;48.674;9.242;2023-04-25T01:53:04;12.60;55.10
21502;DHT22;27639;48.674;9.242;2023-04-25T01:55:30;12.50;55.00
21502;DHT22;27639;48.674;9.242;2023-04-25T01:57:56;12.50;55.00
21502;DHT22;27639;48.674;9.242;2023-04-25T02:00:22;12.50;54.90
21502;DHT22;27639;48.674;9.242;2023-04-25T02:02:48;12.60;55.00
21502;DHT22;27639;48.674;9.242;2023-04-25T02:05:16;12.50;54.90
21502;DHT22;27639;48.674;9.242;2023-04-25T02:07:42;12.50;55.00
21502;DHT22;27639;48.674;9.242;2023-04-25T02:10:08;12.50;55.10
21502;DHT22;27639;48.674;9.242;2023-04-25T02:12:34;12.50;55.20
21502;DHT22;27639;48.674;9.242;2023-04-25T02:15:00;12.50;55.20
21502;DHT22;27639;48.674;9.242;2023-04-25T02:17:26;12.40;55.10
21502;DHT22;27639;48.674;9.242;2023-04-25T02:19:51;12.40;55.20
21502;DHT22;27639;48.674;9.242;2023-04-25T02:22:17;12.40;55.20
21502;DHT22;27639;48.674;9.242;2023-04-25T02:24:42;12.40;55.30
21502;DHT22;27639;48.674;9.242;2023-04-25T02:27:08;12.40;55.10
21502;DHT22;27639;48.674;9.242;2023-04-25T02:29:34;12.40;55.10
21502;DHT22;27639;48.674;9.242;2023-04-25T02:31:59;12.40;55.00
21502;DHT22;27639;48.674;9.242;2023-04-25T02:34:25;12.40;54.90
21502;DHT22;27639;48.674;9.242;2023-04-25T02:36:50;12.40;54.80
21502;DHT22;27639;48.674;9.242;2023-04-25T02:39:16;12.40;54.70
21502;DHT22;27639;48.674;9.242;2023-04-25T02:41:42;12.40;54.60
21502;DHT22;27639;48.674;9.242;2023-04-25T02:44:08;12.40;54.60
21502;DHT22;27639;48.674;9.242;2023-04-25T02:46:33;12.40;54.60
21502;DHT22;27639;48.674;9.242;2023-04-25T02:48:59;12.40;54.60
21502;DHT22;27639;48.674;9.242;2023-04-25T02:51:24;12.40;55.30
21502;DHT22;27639;48.674;9.242;2023-04-25T02:53:50;12.30;54.50
21502;DHT22;27639;48.674;9.242;2023-04-25T02:56:15;12.30;54.50
21502;DHT22;27639;48.674;9.242;2023-04-25T02:58:41;12.30;54.50
21502;DHT22;27639;48.674;9.242;2023-04-25T03:01:07;12.30;54.50
21502;DHT22;27639;48.674;9.242;2023-04-25T03:03:32;12.20;54.50
21502;DHT22;27639;48.674;9.242;2023-04-25T03:05:58;12.20;54.50
21502;DHT22;27639;48.674;9.242;2023-04-25T03:08:23;12.20;54.50
21502;DHT22;27639;48.674;9.242;2023-04-25T03:10:51;12.20;54.60
21502;DHT22;27639;48.674;9.242;2023-04-25T03:13:20;12.20;54.60
21502;DHT22;27639;48.674;9.242;2023-04-25T03:15:46;12.20;54.80
21502;DHT22;27639;48.674;9.242;2023-04-25T03:18:11;12.10;54.70
21502;DHT22;27639;48.674;9.242;2023-04-25T03:20:37;12.10;54.70
21502;DHT22;27639;48.674;9.242;2023-04-25T03:23:04;12.10;54.80
21502;DHT22;27639;48.674;9.242;2023-04-25T03:25:30;12.10;54.80
21502;DHT22;27639;48.674;9.242;2023-04-25T03:27:56;12.10;54.80
21502;DHT22;27639;48.674;9.242;2023-04-25T03:30:22;12.10;54.80
21502;DHT22;27639;48.674;9.242;2023-04-25T03:32:47;12.10;54.80
21502;DHT22;27639;48.674;9.242;2023-04-25T03:35:13;12.10;54.90
21502;DHT22;27639;48.674;9.242;2023-04-25T03:37:38;12.10;55.00
21502;DHT22;27639;48.674;9.242;2023-04-25T03:40:06;12.10;55.00
21502;DHT22;27639;48.674;9.242;2023-04-25T03:42:32;12.10;55.00
21502;DHT22;27639;48.674;9.242;2023-04-25T03:44:57;12.20;55.10
21502;DHT22;27639;48.674;9.242;2023-04-25T03:47:23;12.20;54.90
21502;DHT22;27639;48.674;9.242;2023-04-25T03:49:48;12.20;54.70
21502;DHT22;27639;48.674;9.242;2023-04-25T03:52:17;12.20;55.40
21502;DHT22;27639;48.674;9.242;2023-04-25T03:54:43;12.20;54.80
21502;DHT22;27639;48.674;9.242;2023-04-25T03:57:09;12.20;54.60
21502;DHT22;27639;48.674;9.242;2023-04-25T03:59:35;12.10;54.60
21502;DHT22;27639;48.674;9.242;2023-04-25T04:02:01;12.10;54.70
21502;DHT22;27639;48.674;9.242;2023-04-25T04:04:26;12.10;54.70
21502;DHT22;27639;48.674;9.242;2023-04-25T04:06:52;12.00;54.60
21502;DHT22;27639;48.674;9.242;2023-04-25T04:09:18;12.10;54.70
21502;DHT22;27639;48.674;9.242;2023-04-25T04:11:44;12.10;54.80
21502;DHT22;27639;48.674;9.242;2023-04-25T04:14:10;12.10;54.80
21502;DHT22;27639;48.674;9.242;2023-04-25T04:16:36;12.10;54.80
21502;DHT22;27639;48.674;9.242;2023-04-25T04:19:02;12.10;54.80
21502;DHT22;27639;48.674;9.242;2023-04-25T04:21:27;12.10;54.80
21502;DHT22;27639;48.674;9.242;2023-04-25T04:23:53;12.10;54.90
21502;DHT22;27639;48.674;9.242;2023-04-25T04:26:20;12.10;54.80
21502;DHT22;27639;48.674;9.242;2023-04-25T04:28:49;12.10;54.80
21502;DHT22;27639;48.674;9.242;2023-04-25T04:31:17;12.00;54.80
21502;DHT22;27639;48.674;9.242;2023-04-25T04:33:45;12.00;54.90
21502;DHT22;27639;48.674;9.242;2023-04-25T04:36:11;12.00;55.00
21502;DHT22;27639;48.674;9.242;2023-04-25T04:38:36;12.00;54.90
21502;DHT22;27639;48.674;9.242;2023-04-25T04:41:02;11.90;55.00
21502;DHT22;27639;48.674;9.242;2023-04-25T04:43:28;11.90;55.00
21502;DHT22;27639;48.674;9.242;2023-04-25T04:45:55;11.90;55.10
21502;DHT22;27639;48.674;9.242;2023-04-25T04:48:22;11.90;55.20
21502;DHT22;27639;48.674;9.242;2023-04-25T04:50:47;11.90;55.30
21502;DHT22;27639;48.674;9.242;2023-04-25T04:53:13;11.90;55.20
21502;DHT22;27639;48.674;9.242;2023-04-25T04:55:39;12.00;55.30
21502;DHT22;27639;48.674;9.242;2023-04-25T04:58:06;12.00;55.30
21502;DHT22;27639;48.674;9.242;2023-04-25T05:00:32;12.00;55.30
21502;DHT22;27639;48.674;9.242;2023-04-25T05:02:58;12.10;55.60
21502;DHT22;27639;48.674;9.242;2023-04-25T05:05:24;12.20;55.40
21502;DHT22;27639;48.674;9.242;2023-04-25T05:07:50;12.20;55.20
21502;DHT22;27639;48.674;9.242;2023-04-25T05:10:17;12.20;55.10
21502;DHT22;27639;48.674;9.242;2023-04-25T05:12:42;12.30;55.10
21502;DHT22;27639;48.674;9.242;2023-04-25T05:15:08;12.20;55.00
21502;DHT22;27639;48.674;9.242;2023-04-25T05:17:34;12.30;55.00
21502;DHT22;27639;48.674;9.242;2023-04-25T05:20:00;12.20;55.00
21502;DHT22;27639;48.674;9.242;2023-04-25T05:22:25;12.20;54.90
21502;DHT22;27639;48.674;9.242;2023-04-25T05:24:51;12.20;55.10
21502;DHT22;27639;48.674;9.242;2023-04-25T05:27:18;12.20;55.10
21502;DHT22;27639;48.674;9.242;2023-04-25T05:29:43;12.20;55.10
21502;DHT22;27639;48.674;9.242;2023-04-25T05:32:09;12.30;55.20
21502;DHT22;27639;48.674;9.242;2023-04-25T05:34:35;12.30;55.10
21502;DHT22;27639;48.674;9.242;2023-04-25T05:37:00;12.30;55.00
21502;DHT22;27639;48.674;9.242;2023-04-25T05:39:26;12.30;55.10
21502;DHT22;27639;48.674;9.242;2023-04-25T05:41:52;12.40;55.10
21502;DHT22;27639;48.674;9.242;2023-04-25T05:44:18;12.40;55.30
21502;DHT22;27639;48.674;9.242;2023-04-25T05:46:44;12.40;55.40
21502;DHT22;27639;48.674;9.242;2023-04-25T05:49:10;12.40;55.50
21502;DHT22;27639;48.674;9.242;2023-04-25T05:51:36;12.40;55.50
21502;DHT22;27639;48.674;9.242;2023-04-25T05:54:01;12.30;55.60
21502;DHT22;27639;48.674;9.242;2023-04-25T05:56:27;12.30;55.70
21502;DHT22;27639;48.674;9.242;2023-04-25T05:58:52;12.40;55.80
21502;DHT22;27639;48.674;9.242;2023-04-25T06:01:18;12.40;55.80
21502;DHT22;27639;48.674;9.242;2023-04-25T06:03:44;12.40;56.00
21502;DHT22;27639;48.674;9.242;2023-04-25T06:06:11;12.40;56.10
21502;DHT22;27639;48.674;9.242;2023-04-25T06:08:36;12.40;56.20
21502;DHT22;27639;48.674;9.242;2023-04-25T06:11:03;12.40;56.10
21502;DHT22;27639;48.674;9.242;2023-04-25T06:13:28;12.40;56.20
21502;DHT22;27639;48.674;9.242;2023-04-25T06:15:54;12.50;56.50
21502;DHT22;27639;48.674;9.242;2023-04-25T06:18:19;12.50;56.70
21502;DHT22;27639;48.674;9.242;2023-04-25T06:20:45;12.60;56.80
21502;DHT22;27639;48.674;9.242;2023-04-25T06:23:11;12.70;56.90
21502;DHT22;27639;48.674;9.242;2023-04-25T06:25:36;12.70;56.80
21502;DHT22;27639;48.674;9.242;2023-04-25T06:28:02;12.70;56.60
21502;DHT22;27639;48.674;9.242;2023-04-25T06:30:27;12.80;56.80
21502;DHT22;27639;48.674;9.242;2023-04-25T06:32:53;12.90;56.80
21502;DHT22;27639;48.674;9.242;2023-04-25T06:35:19;13.00;56.60
21502;DHT22;27639;48.674;9.242;2023-04-25T06:37:44;13.10;56.50
21502;DHT22;27639;48.674;9.242;2023-04-25T06:40:10;13.20;56.50
21502;DHT22;27639;48.674;9.242;2023-04-25T06:42:36;13.20;56.00
21502;DHT22;27639;48.674;9.242;2023-04-25T06:45:02;13.20;55.80
21502;DHT22;27639;48.674;9.242;2023-04-25T06:47:27;13.20;55.60
21502;DHT22;27639;48.674;9.242;2023-04-25T06:49:53;13.10;55.20
21502;DHT22;27639;48.674;9.242;2023-04-25T06:52:19;13.10;55.20
21502;DHT22;27639;48.674;9.242;2023-04-25T06:54:44;13.20;55.30
21502;DHT22;27639;48.674;9.242;2023-04-25T06:57:10;13.20;55.10
21502;DHT22;27639;48.674;9.242;2023-04-25T06:59:36;13.10;54.80
21502;DHT22;27639;48.674;9.242;2023-04-25T07:02:01;13.10;54.80
21502;DHT22;27639;48.674;9.242;2023-04-25T07:04:27;13.10;54.70
21502;DHT22;27639;48.674;9.242;2023-04-25T07:06:53;13.10;54.70
21502;DHT22;27639;48.674;9.242;2023-04-25T07:09:18;13.10;54.60
21502;DHT22;27639;48.674;9.242;2023-04-25T07:11:44;13.10;54.60
21502;DHT22;27639;48.674;9.242;2023-04-25T07:14:10;13.10;54.50
21502;DHT22;27639;48.674;9.242;2023-04-25T07:16:35;13.00;54.30
21502;DHT22;27639;48.674;9.242;2023-04-25T07:19:01;13.00;54.30
21502;DHT22;27639;48.674;9.242;2023-04-25T07:21:26;13.00;54.30
21502;DHT22;27639;48.674;9.242;2023-04-25T07:23:52;13.00;54.20
21502;DHT22;27639;48.674;9.242;2023-04-25T07:26:18;13.00;54.10
21502;DHT22;27639;48.674;9.242;2023-04-25T07:28:43;13.00;54.20
21502;DHT22;27639;48.674;9.242;2023-04-25T07:31:09;13.00;54.20
21502;DHT22;27639;48.674;9.242;2023-04-25T07:33:34;13.10;54.00
21502;DHT22;27639;48.674;9.242;2023-04-25T07:36:00;13.00;53.60
21502;DHT22;27639;48.674;9.242;2023-04-25T07:38:26;13.10;53.70
21502;DHT22;27639;48.674;9.242;2023-04-25T07:40:52;13.10;53.90
21502;DHT22;27639;48.674;9.242;2023-04-25T07:43:17;13.00;54.00
21502;DHT22;27639;48.674;9.242;2023-04-25T07:45:44;13.00;54.20
21502;DHT22;27639;48.674;9.242;2023-04-25T07:48:09;12.90;54.20
21502;DHT22;27639;48.674;9.242;2023-04-25T07:50:35;12.90;54.50
21502;DHT22;27639;48.674;9.242;2023-04-25T07:53:01;12.80;54.60
21502;DHT22;27639;48.674;9.242;2023-04-25T07:55:27;12.80;54.90
21502;DHT22;27639;48.674;9.242;2023-04-25T07:57:53;12.80;54.90
21502;DHT22;27639;48.674;9.242;2023-04-25T08:00:19;12.80;55.00
21502;DHT22;27639;48.674;9.242;2023-04-25T08:02:44;12.80;55.30
21502;DHT22;27639;48.674;9.242;2023-04-25T08:05:10;12.80;55.50
21502;DHT22;27639;48.674;9.242;2023-04-25T08:07:40;12.70;55.60
21502;DHT22;27639;48.674;9.242;2023-04-25T08:10:06;12.70;55.80
21502;DHT22;27639;48.674;9.242;2023-04-25T08:12:32;12.70;55.90
21502;DHT22;27639;48.674;9.242;2023-04-25T08:14:57;12.70;56.00
21502;DHT22;27639;48.674;9.242;2023-04-25T08:17:23;12.70;56.30
21502;DHT22;27639;48.674;9.242;2023-04-25T08:19:49;12.70;56.30
21502;DHT22;27639;48.674;9.242;2023-04-25T08:22:14;12.70;56.30
21502;DHT22;27639;48.674;9.242;2023-04-25T08:24:41;12.70;56.20
21502;DHT22;27639;48.674;9.242;2023-04-25T08:27:06;12.80;56.40
21502;DHT22;27639;48.674;9.242;2023-04-25T08:29:33;12.70;56.40
21502;DHT22;27639;48.674;9.242;2023-04-25T08:31:59;12.70;56.40
21502;DHT22;27639;48.674;9.242;2023-04-25T08:34:24;12.70;56.40
21502;DHT22;27639;48.674;9.242;2023-04-25T08:36:51;12.70;56.50
21502;DHT22;27639;48.674;9.242;2023-04-25T08:39:16;12.70;56.40
21502;DHT22;27639;48.674;9.242;2023-04-25T08:41:42;12.60;56.60
21502;DHT22;27639;48.674;9.242;2023-04-25T08:44:10;12.50;56.80
21502;DHT22;27639;48.674;9.242;2023-04-25T08:46:38;12.50;56.90
21502;DHT22;27639;48.674;9.242;2023-04-25T08:49:06;12.40;56.70
21502;DHT22;27639;48.674;9.242;2023-04-25T08:51:32;12.30;56.70
21502;DHT22;27639;48.674;9.242;2023-04-25T08:54:11;12.30;56.80
21502;DHT22;27639;48.674;9.242;2023-04-25T08:56:47;12.20;56.80
21502;DHT22;27639;48.674;9.242;2023-04-25T08:59:13;12.20;57.10
21502;DHT22;27639;48.674;9.242;2023-04-25T09:01:39;12.20;57.30
21502;DHT22;27639;48.674;9.242;2023-04-25T09:04:05;12.20;57.30
21502;DHT22;27639;48.674;9.242;2023-04-25T09:06:32;12.30;57.40
21502;DHT22;27639;48.674;9.242;2023-04-25T09:09:04;12.30;57.50
21502;DHT22;27639;48.674;9.242;2023-04-25T09:11:31;12.30;57.50
21502;DHT22;27639;48.674;9.242;2023-04-25T09:14:17;12.30;58.10
21502;DHT22;27639;48.674;9.242;2023-04-25T09:16:59;12.30;57.10
21502;DHT22;27639;48.674;9.242;2023-04-25T09:19:33;12.30;57.20
21502;DHT22;27639;48.674;9.242;2023-04-25T09:22:03;12.20;57.50
21502;DHT22;27639;48.674;9.242;2023-04-25T09:24:32;12.20;57.50
21502;DHT22;27639;48.674;9.242;2023-04-25T09:26:58;12.20;57.40
21502;DHT22;27639;48.674;9.242;2023-04-25T09:29:34;12.20;57.40
21502;DHT22;27639;48.674;9.242;2023-04-25T09:32:20;12.20;57.30
21502;DHT22;27639;48.674;9.242;2023-04-25T09:34:56;12.20;57.20
21502;DHT22;27639;48.674;9.242;2023-04-25T09:37:29;12.20;57.40
21502;DHT22;27639;48.674;9.242;2023-04-25T09:39:59;12.10;57.60
21502;DHT22;27639;48.674;9.242;2023-04-25T09:42:26;12.10;57.60
21502;DHT22;27639;48.674;9.242;2023-04-25T09:44:53;12.10;57.60
21502;DHT22;27639;48.674;9.242;2023-04-25T09:47:19;12.10;58.30
21502;DHT22;27639;48.674;9.242;2023-04-25T09:49:48;12.00;57.70
21502;DHT22;27639;48.674;9.242;2023-04-25T09:52:22;11.90;57.80
21502;DHT22;27639;48.674;9.242;2023-04-25T09:54:48;11.80;57.90
21502;DHT22;27639;48.674;9.242;2023-04-25T09:57:22;11.60;58.10
21502;DHT22;27639;48.674;9.242;2023-04-25T09:59:49;11.60;58.70
21502;DHT22;27639;48.674;9.242;2023-04-25T10:02:17;11.40;58.70
21502;DHT22;27639;48.674;9.242;2023-04-25T10:04:50;11.50;58.90
21502;DHT22;27639;48.674;9.242;2023-04-25T10:07:18;11.50;58.90
21502;DHT22;27639;48.674;9.242;2023-04-25T10:09:47;11.60;59.00
21502;DHT22;27639;48.674;9.242;2023-04-25T10:12:13;11.70;58.90
21502;DHT22;27639;48.674;9.242;2023-04-25T10:14:39;11.70;58.80
21502;DHT22;27639;48.674;9.242;2023-04-25T10:17:05;11.60;58.80
21502;DHT22;27639;48.674;9.242;2023-04-25T10:19:32;11.60;58.70
21502;DHT22;27639;48.674;9.242;2023-04-25T10:22:20;11.60;59.40
21502;DHT22;27639;48.674;9.242;2023-04-25T10:24:49;11.50;58.70
21502;DHT22;27639;48.674;9.242;2023-04-25T10:27:16;11.40;58.60
21502;DHT22;27639;48.674;9.242;2023-04-25T10:29:42;11.40;58.50
21502;DHT22;27639;48.674;9.242;2023-04-25T10:32:10;11.40;58.40
21502;DHT22;27639;48.674;9.242;2023-04-25T10:34:42;11.30;58.30
21502;DHT22;27639;48.674;9.242;2023-04-25T10:37:09;11.40;58.60
21502;DHT22;27639;48.674;9.242;2023-04-25T10:39:35;11.40;58.60
21502;DHT22;27639;48.674;9.242;2023-04-25T10:42:02;11.40;59.20
21502;DHT22;27639;48.674;9.242;2023-04-25T10:44:31;11.30;58.80
21502;DHT22;27639;48.674;9.242;2023-04-25T10:46:59;11.30;58.70
21502;DHT22;27639;48.674;9.242;2023-04-25T10:49:35;11.40;58.60
21502;DHT22;27639;48.674;9.242;2023-04-25T10:54:57;11.40;58.60
21502;DHT22;27639;48.674;9.242;2023-04-25T10:57:43;11.40;58.60
21502;DHT22;27639;48.674;9.242;2023-04-25T11:00:16;11.40;58.50
21502;DHT22;27639;48.674;9.242;2023-04-25T11:02:44;11.30;58.60
21502;DHT22;27639;48.674;9.242;2023-04-25T11:05:18;11.40;58.60
21502;DHT22;27639;48.674;9.242;2023-04-25T11:07:52;11.30;58.50
21502;DHT22;27639;48.674;9.242;2023-04-25T11:10:19;11.30;58.50
21502;DHT22;27639;48.674;9.242;2023-04-25T11:12:46;11.30;58.50
21502;DHT22;27639;48.674;9.242;2023-04-25T11:15:13;11.20;58.70
21502;DHT22;27639;48.674;9.242;2023-04-25T11:17:39;11.30;58.90
21502;DHT22;27639;48.674;9.242;2023-04-25T11:20:07;11.30;59.00
21502;DHT22;27639;48.674;9.242;2023-04-25T11:22:37;11.30;59.30
21502;DHT22;27639;48.674;9.242;2023-04-25T11:25:10;11.20;59.40
21502;DHT22;27639;48.674;9.242;2023-04-25T11:27:52;11.20;59.40
21502;DHT22;27639;48.674;9.242;2023-04-25T11:30:19;11.20;59.30
21502;DHT22;27639;48.674;9.242;2023-04-25T11:32:46;11.20;59.30
21502;DHT22;27639;48.674;9.242;2023-04-25T11:35:12;11.30;59.40
21502;DHT22;27639;48.674;9.242;2023-04-25T11:37:42;11.30;59.30
21502;DHT22;27639;48.674;9.242;2023-04-25T11:40:08;11.30;59.40
21502;DHT22;27639;48.674;9.242;2023-04-25T11:42:39;11.30;59.30
21502;DHT22;27639;48.674;9.242;2023-04-25T11:45:08;11.40;59.10
21502;DHT22;27639;48.674;9.242;2023-04-25T11:47:35;11.40;58.90
21502;DHT22;27639;48.674;9.242;2023-04-25T11:50:05;11.50;58.70
21502;DHT22;27639;48.674;9.242;2023-04-25T11:52:41;11.50;58.70
21502;DHT22;27639;48.674;9.242;2023-04-25T11:55:08;11.60;58.60
21502;DHT22;27639;48.674;9.242;2023-04-25T11:57:34;11.60;58.40
21502;DHT22;27639;48.674;9.242;2023-04-25T12:00:14;11.70;58.80
21502;DHT22;27639;48.674;9.242;2023-04-25T12:02:41;11.80;58.80
21502;DHT22;27639;48.674;9.242;2023-04-25T12:05:08;11.90;58.00
21502;DHT22;27639;48.674;9.242;2023-04-25T12:07:34;12.00;57.80
21502;DHT22;27639;48.674;9.242;2023-04-25T12:10:07;12.00;56.90
21502;DHT22;27639;48.674;9.242;2023-04-25T12:12:34;12.10;57.80
21502;DHT22;27639;48.674;9.242;2023-04-25T12:15:17;12.10;57.80
21502;DHT22;27639;48.674;9.242;2023-04-25T12:17:45;12.10;57.70
21502;DHT22;27639;48.674;9.242;2023-04-25T12:20:14;11.80;57.90
21502;DHT22;27639;48.674;9.242;2023-04-25T12:22:46;11.80;58.40
21502;DHT22;27639;48.674;9.242;2023-04-25T12:25:13;11.90;58.40
21502;DHT22;27639;48.674;9.242;2023-04-25T12:28:19;11.90;58.40
21502;DHT22;27639;48.674;9.242;2023-04-25T12:33:21;12.00;58.10
21502;DHT22;27639;48.674;9.242;2023-04-25T12:35:47;12.10;58.00
21502;DHT22;27639;48.674;9.242;2023-04-25T12:38:24;12.20;57.90
21502;DHT22;27639;48.674;9.242;2023-04-25T12:40:50;12.20;57.90
21502;DHT22;27639;48.674;9.242;2023-04-25T12:43:16;12.20;57.90
21502;DHT22;27639;48.674;9.242;2023-04-25T12:45:42;12.30;57.60
21502;DHT22;27639;48.674;9.242;2023-04-25T12:48:08;12.30;57.70
21502;DHT22;27639;48.674;9.242;2023-04-25T12:50:33;12.30;57.60
21502;DHT22;27639;48.674;9.242;2023-04-25T12:52:59;12.30;57.30
21502;DHT22;27639;48.674;9.242;2023-04-25T12:55:25;12.30;57.40
21502;DHT22;27639;48.674;9.242;2023-04-25T12:57:51;12.30;57.50
21502;DHT22;27639;48.674;9.242;2023-04-25T13:00:17;12.40;57.40
21502;DHT22;27639;48.674;9.242;2023-04-25T13:02:45;12.50;57.50
21502;DHT22;27639;48.674;9.242;2023-04-25T13:05:12;12.50;57.60
21502;DHT22;27639;48.674;9.242;2023-04-25T13:07:38;12.60;57.50
21502;DHT22;27639;48.674;9.242;2023-04-25T13:10:04;12.70;56.90
21502;DHT22;27639;48.674;9.242;2023-04-25T13:12:31;12.80;57.20
21502;DHT22;27639;48.674;9.242;2023-04-25T13:14:57;12.80;57.30
21502;DHT22;27639;48.674;9.242;2023-04-25T13:17:22;12.90;56.60
21502;DHT22;27639;48.674;9.242;2023-04-25T13:19:48;13.00;55.60
21502;DHT22;27639;48.674;9.242;2023-04-25T13:22:13;13.10;56.00
21502;DHT22;27639;48.674;9.242;2023-04-25T13:24:40;13.20;57.30
21502;DHT22;27639;48.674;9.242;2023-04-25T13:27:06;13.30;56.90
21502;DHT22;27639;48.674;9.242;2023-04-25T13:29:32;13.30;56.40
21502;DHT22;27639;48.674;9.242;2023-04-25T13:32:00;13.50;55.60
21502;DHT22;27639;48.674;9.242;2023-04-25T13:34:26;13.60;55.30
21502;DHT22;27639;48.674;9.242;2023-04-25T13:36:51;13.50;54.70
21502;DHT22;27639;48.674;9.242;2023-04-25T13:39:17;13.40;54.80
21502;DHT22;27639;48.674;9.242;2023-04-25T13:41:43;13.40;55.00
21502;DHT22;27639;48.674;9.242;2023-04-25T13:44:08;13.40;55.40
21502;DHT22;27639;48.674;9.242;2023-04-25T13:46:34;13.30;54.90
21502;DHT22;27639;48.674;9.242;2023-04-25T13:48:59;13.30;55.30
21502;DHT22;27639;48.674;9.242;2023-04-25T13:51:26;13.50;55.70
21502;DHT22;27639;48.674;9.242;2023-04-25T13:53:52;13.50;55.20
21502;DHT22;27639;48.674;9.242;2023-04-25T13:56:18;13.60;55.60
21502;DHT22;27639;48.674;9.242;2023-04-25T13:58:45;13.60;54.90
21502;DHT22;27639;48.674;9.242;2023-04-25T14:01:10;13.70;55.10
21502;DHT22;27639;48.674;9.242;2023-04-25T14:03:36;13.80;54.90
21502;DHT22;27639;48.674;9.242;2023-04-25T14:06:01;13.80;54.60
21502;DHT22;27639;48.674;9.242;2023-04-25T14:08:27;13.80;54.60
21502;DHT22;27639;48.674;9.242;2023-04-25T14:10:54;13.90;55.00
21502;DHT22;27639;48.674;9.242;2023-04-25T14:13:19;13.90;54.60
21502;DHT22;27639;48.674;9.242;2023-04-25T14:15:45;13.90;54.50
21502;DHT22;27639;48.674;9.242;2023-04-25T14:18:11;13.90;54.50
21502;DHT22;27639;48.674;9.242;2023-04-25T14:20:36;13.90;54.40
21502;DHT22;27639;48.674;9.242;2023-04-25T14:23:02;13.90;55.00
21502;DHT22;27639;48.674;9.242;2023-04-25T14:25:29;13.90;54.50
21502;DHT22;27639;48.674;9.242;2023-04-25T14:27:55;13.90;54.80
21502;DHT22;27639;48.674;9.242;2023-04-25T14:30:21;13.90;54.90
21502;DHT22;27639;48.674;9.242;2023-04-25T14:32:51;14.00;55.00
21502;DHT22;27639;48.674;9.242;2023-04-25T14:35:17;14.10;54.50
21502;DHT22;27639;48.674;9.242;2023-04-25T14:37:42;14.20;54.50
21502;DHT22;27639;48.674;9.242;2023-04-25T14:40:08;14.30;54.70
21502;DHT22;27639;48.674;9.242;2023-04-25T14:42:36;14.40;54.50
21502;DHT22;27639;48.674;9.242;2023-04-25T14:45:03;14.40;54.40
21502;DHT22;27639;48.674;9.242;2023-04-25T14:47:29;14.40;54.40
21502;DHT22;27639;48.674;9.242;2023-04-25T14:49:55;14.50;54.40
21502;DHT22;27639;48.674;9.242;2023-04-25T14:52:21;14.50;53.90
21502;DHT22;27639;48.674;9.242;2023-04-25T14:54:46;14.50;53.60
21502;DHT22;27639;48.674;9.242;2023-04-25T14:57:12;14.50;53.20
21502;DHT22;27639;48.674;9.242;2023-04-25T14:59:38;14.50;53.10
21502;DHT22;27639;48.674;9.242;2023-04-25T15:02:04;14.50;53.10
21502;DHT22;27639;48.674;9.242;2023-04-25T15:04:29;14.50;53.40
21502;DHT22;27639;48.674;9.242;2023-04-25T15:06:55;14.50;53.50
21502;DHT22;27639;48.674;9.242;2023-04-25T15:09:21;14.60;53.20
21502;DHT22;27639;48.674;9.242;2023-04-25T15:11:48;14.60;53.10
21502;DHT22;27639;48.674;9.242;2023-04-25T15:14:14;14.70;53.50
21502;DHT22;27639;48.674;9.242;2023-04-25T15:16:39;14.80;53.20
21502;DHT22;27639;48.674;9.242;2023-04-25T15:19:05;14.90;52.90
21502;DHT22;27639;48.674;9.242;2023-04-25T15:21:31;14.90;52.70
21502;DHT22;27639;48.674;9.242;2023-04-25T15:23:57;15.00;52.50
21502;DHT22;27639;48.674;9.242;2023-04-25T15:26:22;15.00;51.90
21502;DHT22;27639;48.674;9.242;2023-04-25T15:28:48;14.80;51.90
21502;DHT22;27639;48.674;9.242;2023-04-25T15:31:14;14.90;52.10
21502;DHT22;27639;48.674;9.242;2023-04-25T15:33:39;14.90;51.70